createdAt,value
2017-01-31T00:00:35.592Z,990.24
2017-01-31T00:01:35.622Z,990.19
2017-01-31T00:02:35.647Z,990.25
2017-01-31T00:03:35.671Z,990.24
2017-01-31T00:04:35.699Z,990.23
2017-01-31T00:05:35.728Z,990.25
2017-01-31T00:06:35.756Z,990.32
2017-01-31T00:07:35.781Z,990.34
2017-01-31T00:08:35.811Z,990.25
2017-01-31T00:09:35.835Z,990.3
2017-01-31T00:10:35.863Z,990.31
2017-01-31T00:11:35.885Z,990.33
2017-01-31T00:12:35.917Z,990.35
2017-01-31T00:13:35.947Z,990.32
2017-01-31T00:14:35.970Z,990.34
2017-01-31T00:15:35.998Z,990.35
2017-01-31T00:16:36.026Z,990.33
2017-01-31T00:17:36.053Z,990.36
2017-01-31T00:18:36.361Z,990.36
2017-01-31T00:19:36.106Z,990.34
2017-01-31T00:20:36.140Z,990.36
2017-01-31T00:21:36.160Z,990.35
2017-01-31T00:22:36.183Z,990.33
2017-01-31T00:23:36.463Z,990.34
2017-01-31T00:24:36.241Z,990.35
2017-01-31T00:25:36.265Z,990.37
2017-01-31T00:26:36.295Z,990.36
2017-01-31T00:27:36.324Z,990.33
2017-01-31T00:28:36.351Z,990.35
2017-01-31T00:29:36.379Z,990.36
2017-01-31T00:30:36.401Z,990.34
2017-01-31T00:31:36.431Z,990.34
2017-01-31T00:32:36.451Z,990.31
2017-01-31T00:33:36.483Z,990.28
2017-01-31T00:34:36.509Z,990.34
2017-01-31T00:35:36.536Z,990.29
2017-01-31T00:36:36.565Z,990.3
2017-01-31T00:37:36.587Z,990.31
2017-01-31T00:38:36.619Z,990.27
2017-01-31T00:39:36.645Z,990.27
2017-01-31T00:40:36.673Z,990.32
2017-01-31T00:41:36.700Z,990.31
2017-01-31T00:42:36.727Z,990.32
2017-01-31T00:43:36.755Z,990.27
2017-01-31T00:44:36.783Z,990.28
2017-01-31T00:45:36.836Z,990.29
2017-01-31T00:46:36.834Z,990.28
2017-01-31T00:47:36.858Z,990.3
2017-01-31T00:48:36.887Z,990.3
2017-01-31T00:49:36.914Z,990.25
2017-01-31T00:50:36.940Z,990.31
2017-01-31T00:51:36.970Z,990.29
2017-01-31T00:52:36.993Z,990.3
2017-01-31T00:53:37.022Z,990.3
2017-01-31T00:54:37.052Z,990.33
2017-01-31T00:55:37.075Z,990.3
2017-01-31T00:56:37.102Z,990.28
2017-01-31T00:57:37.133Z,990.31
2017-01-31T00:58:37.158Z,990.31
2017-01-31T00:59:37.184Z,990.3
2017-01-31T01:00:37.209Z,990.34
2017-01-31T01:01:37.240Z,990.34
2017-01-31T01:02:37.265Z,990.31
2017-01-31T01:03:37.293Z,990.34
2017-01-31T01:04:37.317Z,990.33
2017-01-31T01:05:37.347Z,990.37
2017-01-31T01:06:37.371Z,990.35
2017-01-31T01:07:37.400Z,990.37
2017-01-31T01:08:37.428Z,990.34
2017-01-31T01:09:37.454Z,990.41
2017-01-31T01:10:37.479Z,990.34
2017-01-31T01:11:37.507Z,990.36
2017-01-31T01:12:37.536Z,990.36
2017-01-31T01:13:37.556Z,990.33
2017-01-31T01:14:37.588Z,990.4
2017-01-31T01:15:37.617Z,990.4
2017-01-31T01:16:37.643Z,990.35
2017-01-31T01:17:37.667Z,990.36
2017-01-31T01:18:37.691Z,990.35
2017-01-31T01:19:37.972Z,990.4
2017-01-31T01:20:37.753Z,990.38
2017-01-31T01:21:37.775Z,990.4
2017-01-31T01:22:37.803Z,990.4
2017-01-31T01:23:37.831Z,990.41
2017-01-31T01:24:38.111Z,990.4
2017-01-31T01:25:37.881Z,990.42
2017-01-31T01:26:37.911Z,990.41
2017-01-31T01:27:37.936Z,990.43
2017-01-31T01:28:37.963Z,990.44
2017-01-31T01:29:38.240Z,990.46
2017-01-31T01:30:38.017Z,990.43
2017-01-31T01:31:38.043Z,990.44
2017-01-31T01:32:38.071Z,990.44
2017-01-31T01:33:38.099Z,990.46
2017-01-31T01:34:38.375Z,990.43
2017-01-31T01:35:38.158Z,990.41
2017-01-31T01:36:38.177Z,990.44
2017-01-31T01:37:38.207Z,990.44
2017-01-31T01:38:38.236Z,990.46
2017-01-31T01:39:38.264Z,990.46
2017-01-31T01:40:38.284Z,990.46
2017-01-31T01:41:38.313Z,990.45
2017-01-31T01:42:38.334Z,990.46
2017-01-31T01:43:38.365Z,990.46
2017-01-31T01:44:38.392Z,990.45
2017-01-31T01:45:38.420Z,990.45
2017-01-31T01:46:38.446Z,990.46
2017-01-31T01:47:38.473Z,990.4
2017-01-31T01:48:38.502Z,990.45
2017-01-31T01:49:38.526Z,990.39
2017-01-31T01:50:38.555Z,990.4
2017-01-31T01:51:38.581Z,990.44
2017-01-31T01:52:38.609Z,990.44
2017-01-31T01:53:38.636Z,990.43
2017-01-31T01:54:38.663Z,990.44
2017-01-31T01:55:38.687Z,990.35
2017-01-31T01:56:38.716Z,990.4
2017-01-31T01:57:38.742Z,990.42
2017-01-31T01:58:38.770Z,990.44
2017-01-31T01:59:38.799Z,990.43
2017-01-31T02:00:38.819Z,990.41
2017-01-31T02:01:38.848Z,990.37
2017-01-31T02:02:38.876Z,990.4
2017-01-31T02:03:38.901Z,990.44
2017-01-31T02:04:38.930Z,990.43
2017-01-31T02:05:39.206Z,990.42
2017-01-31T02:06:38.983Z,990.38
2017-01-31T02:07:39.015Z,990.43
2017-01-31T02:08:39.036Z,990.4
2017-01-31T02:09:39.062Z,990.38
2017-01-31T02:10:39.350Z,990.4
2017-01-31T02:11:39.117Z,990.42
2017-01-31T02:12:39.144Z,990.38
2017-01-31T02:13:39.168Z,990.37
2017-01-31T02:14:39.198Z,990.33
2017-01-31T02:15:39.223Z,990.32
2017-01-31T02:16:39.253Z,990.34
2017-01-31T02:17:39.275Z,990.31
2017-01-31T02:18:39.303Z,990.29
2017-01-31T02:19:39.324Z,990.3
2017-01-31T02:20:39.358Z,990.3
2017-01-31T02:21:39.387Z,990.31
2017-01-31T02:22:39.412Z,990.3
2017-01-31T02:23:39.438Z,990.29
2017-01-31T02:24:39.465Z,990.28
2017-01-31T02:25:39.493Z,990.27
2017-01-31T02:26:39.514Z,990.26
2017-01-31T02:27:39.543Z,990.24
2017-01-31T02:28:39.589Z,990.22
2017-01-31T02:29:39.599Z,990.19
2017-01-31T02:30:39.623Z,990.17
2017-01-31T02:31:39.654Z,990.23
2017-01-31T02:32:39.679Z,990.23
2017-01-31T02:33:39.707Z,990.19
2017-01-31T02:34:39.732Z,990.18
2017-01-31T02:35:39.761Z,990.17
2017-01-31T02:36:39.786Z,990.16
2017-01-31T02:37:39.815Z,990.19
2017-01-31T02:38:39.838Z,990.21
2017-01-31T02:39:39.869Z,990.19
2017-01-31T02:40:39.896Z,990.22
2017-01-31T02:41:40.169Z,990.17
2017-01-31T02:42:39.946Z,990.27
2017-01-31T02:43:39.973Z,990.22
2017-01-31T02:44:39.999Z,990.19
2017-01-31T02:45:40.028Z,990.23
2017-01-31T02:46:40.307Z,990.2
2017-01-31T02:47:40.082Z,990.19
2017-01-31T02:48:40.109Z,990.24
2017-01-31T02:49:40.135Z,990.26
2017-01-31T02:50:40.154Z,990.25
2017-01-31T02:51:40.439Z,990.29
2017-01-31T02:52:40.213Z,990.27
2017-01-31T02:53:40.242Z,990.25
2017-01-31T02:54:40.292Z,990.26
2017-01-31T02:55:40.294Z,990.27
2017-01-31T02:56:40.319Z,990.25
2017-01-31T02:57:40.344Z,990.24
2017-01-31T02:58:40.373Z,990.27
2017-01-31T02:59:40.403Z,990.29
2017-01-31T03:00:40.427Z,990.29
2017-01-31T03:01:40.455Z,990.29
2017-01-31T03:02:40.481Z,990.27
2017-01-31T03:03:40.508Z,990.27
2017-01-31T03:04:40.533Z,990.24
2017-01-31T03:05:40.560Z,990.22
2017-01-31T03:06:40.587Z,990.27
2017-01-31T03:07:40.614Z,990.28
2017-01-31T03:08:40.641Z,990.28
2017-01-31T03:09:40.669Z,990.24
2017-01-31T03:10:40.693Z,990.29
2017-01-31T03:11:40.718Z,990.3
2017-01-31T03:12:40.747Z,990.23
2017-01-31T03:13:40.772Z,990.24
2017-01-31T03:14:40.800Z,990.26
2017-01-31T03:15:40.829Z,990.22
2017-01-31T03:16:40.855Z,990.22
2017-01-31T03:17:40.882Z,990.2
2017-01-31T03:18:40.903Z,990.22
2017-01-31T03:19:40.935Z,990.21
2017-01-31T03:20:40.961Z,990.23
2017-01-31T03:21:40.985Z,990.17
2017-01-31T03:22:41.264Z,990.17
2017-01-31T03:23:41.042Z,990.18
2017-01-31T03:24:41.068Z,990.14
2017-01-31T03:25:41.093Z,990.15
2017-01-31T03:26:41.120Z,990.12
2017-01-31T03:27:41.401Z,990.1
2017-01-31T03:28:41.173Z,990.07
2017-01-31T03:29:41.198Z,990.08
2017-01-31T03:31:41.255Z,990.11
2017-01-31T03:32:41.277Z,990.12
2017-01-31T03:33:41.306Z,990.13
2017-01-31T03:34:41.886Z,990.09
2017-01-31T03:35:41.358Z,990.13
2017-01-31T03:36:41.388Z,990.14
2017-01-31T03:37:41.412Z,990.1
2017-01-31T03:38:41.441Z,990.12
2017-01-31T03:39:41.966Z,990.09
2017-01-31T03:40:41.495Z,990.1
2017-01-31T03:41:41.520Z,990.12
2017-01-31T03:42:41.549Z,990.1
2017-01-31T03:43:41.574Z,990.13
2017-01-31T03:44:41.853Z,990.09
2017-01-31T03:45:41.626Z,990.1
2017-01-31T03:46:41.653Z,990.12
2017-01-31T03:47:41.679Z,990.08
2017-01-31T03:48:41.708Z,990.1
2017-01-31T03:49:41.986Z,990.1
2017-01-31T03:50:41.762Z,990.1
2017-01-31T03:51:41.787Z,990.13
2017-01-31T03:52:41.816Z,990.04
2017-01-31T03:53:41.841Z,990.06
2017-01-31T03:54:42.123Z,990.06
2017-01-31T03:55:41.889Z,990.08
2017-01-31T03:56:41.922Z,990.01
2017-01-31T03:57:41.947Z,990.04
2017-01-31T03:58:41.971Z,990.01
2017-01-31T03:59:42.255Z,990.05
2017-01-31T04:00:42.026Z,990.04
2017-01-31T04:01:42.055Z,990.02
2017-01-31T04:02:42.079Z,990.04
2017-01-31T04:03:42.108Z,990.05
2017-01-31T04:04:42.388Z,990.04
2017-01-31T04:05:42.163Z,990.1
2017-01-31T04:06:42.190Z,990.11
2017-01-31T04:07:42.211Z,990.13
2017-01-31T04:08:42.240Z,990.11
2017-01-31T04:09:42.267Z,990.09
2017-01-31T04:10:42.292Z,990.12
2017-01-31T04:11:42.322Z,990.11
2017-01-31T04:12:42.346Z,990.14
2017-01-31T04:13:42.376Z,990.16
2017-01-31T04:14:42.400Z,990.18
2017-01-31T04:15:42.428Z,990.18
2017-01-31T04:16:42.450Z,990.18
2017-01-31T04:17:42.481Z,990.14
2017-01-31T04:18:42.507Z,990.12
2017-01-31T04:19:42.535Z,990.11
2017-01-31T04:20:42.561Z,990.11
2017-01-31T04:21:42.590Z,990.09
2017-01-31T04:22:42.614Z,990.12
2017-01-31T04:23:42.642Z,990.12
2017-01-31T04:24:42.667Z,990.1
2017-01-31T04:25:42.694Z,990.13
2017-01-31T04:26:42.724Z,990.17
2017-01-31T04:27:42.748Z,990.18
2017-01-31T04:28:42.774Z,990.18
2017-01-31T04:29:42.798Z,990.2
2017-01-31T04:30:42.827Z,990.15
2017-01-31T04:31:42.853Z,990.13
2017-01-31T04:32:42.879Z,990.18
2017-01-31T04:33:42.910Z,990.17
2017-01-31T04:34:42.936Z,990.16
2017-01-31T04:35:42.960Z,990.16
2017-01-31T04:36:42.988Z,990.16
2017-01-31T04:37:43.008Z,990.18
2017-01-31T04:38:43.041Z,990.21
2017-01-31T04:39:43.067Z,990.17
2017-01-31T04:40:43.095Z,990.15
2017-01-31T04:41:43.120Z,990.19
2017-01-31T04:42:43.148Z,990.2
2017-01-31T04:43:43.174Z,990.16
2017-01-31T04:44:43.199Z,990.2
2017-01-31T04:45:43.230Z,990.21
2017-01-31T04:46:43.256Z,990.29
2017-01-31T04:47:43.281Z,990.24
2017-01-31T04:48:43.304Z,990.28
2017-01-31T04:49:43.333Z,990.31
2017-01-31T04:50:43.359Z,990.27
2017-01-31T04:51:43.387Z,990.31
2017-01-31T04:52:43.413Z,990.34
2017-01-31T04:53:43.440Z,990.31
2017-01-31T04:54:43.466Z,990.29
2017-01-31T04:55:43.746Z,990.36
2017-01-31T04:56:43.519Z,990.32
2017-01-31T04:57:43.548Z,990.32
2017-01-31T04:58:43.568Z,990.34
2017-01-31T04:59:43.597Z,990.38
2017-01-31T05:00:43.878Z,990.4
2017-01-31T05:01:43.654Z,990.39
2017-01-31T05:02:43.681Z,990.46
2017-01-31T05:03:43.699Z,990.45
2017-01-31T05:04:43.734Z,990.43
2017-01-31T05:05:44.015Z,990.44
2017-01-31T05:06:43.780Z,990.45
2017-01-31T05:07:43.811Z,990.43
2017-01-31T05:08:43.836Z,990.44
2017-01-31T05:09:43.865Z,990.39
2017-01-31T05:10:44.144Z,990.43
2017-01-31T05:11:43.920Z,990.41
2017-01-31T05:12:43.945Z,990.42
2017-01-31T05:13:43.972Z,990.42
2017-01-31T05:14:43.991Z,990.41
2017-01-31T05:15:44.277Z,990.43
2017-01-31T05:16:44.056Z,990.43
2017-01-31T05:17:44.074Z,990.39
2017-01-31T05:18:44.102Z,990.39
2017-01-31T05:19:44.127Z,990.38
2017-01-31T05:20:44.408Z,990.43
2017-01-31T05:21:44.185Z,990.4
2017-01-31T05:22:44.210Z,990.42
2017-01-31T05:23:44.239Z,990.41
2017-01-31T05:24:44.259Z,990.39
2017-01-31T05:25:44.292Z,990.45
2017-01-31T05:26:44.317Z,990.5
2017-01-31T05:27:44.345Z,990.49
2017-01-31T05:28:44.371Z,990.51
2017-01-31T05:29:44.396Z,990.53
2017-01-31T05:30:44.419Z,990.54
2017-01-31T05:31:44.449Z,990.55
2017-01-31T05:32:44.476Z,990.51
2017-01-31T05:33:44.502Z,990.53
2017-01-31T05:34:44.530Z,990.49
2017-01-31T05:35:44.556Z,990.55
2017-01-31T05:36:44.585Z,990.53
2017-01-31T05:37:44.609Z,990.54
2017-01-31T05:38:44.634Z,990.56
2017-01-31T05:39:44.663Z,990.52
2017-01-31T05:40:44.687Z,990.54
2017-01-31T05:41:44.715Z,990.57
2017-01-31T05:42:44.745Z,990.59
2017-01-31T05:43:44.769Z,990.57
2017-01-31T05:44:44.798Z,990.59
2017-01-31T05:45:44.817Z,990.56
2017-01-31T05:46:44.851Z,990.56
2017-01-31T05:47:44.877Z,990.57
2017-01-31T05:48:44.900Z,990.54
2017-01-31T05:49:44.931Z,990.56
2017-01-31T05:50:44.958Z,990.57
2017-01-31T05:51:44.983Z,990.58
2017-01-31T05:52:45.016Z,990.55
2017-01-31T05:53:45.035Z,990.55
2017-01-31T05:54:45.064Z,990.54
2017-01-31T05:55:45.089Z,990.57
2017-01-31T05:56:45.117Z,990.55
2017-01-31T05:57:45.142Z,990.53
2017-01-31T05:58:45.169Z,990.5
2017-01-31T05:59:45.196Z,990.59
2017-01-31T06:00:45.225Z,990.61
2017-01-31T06:01:45.245Z,990.67
2017-01-31T06:02:45.278Z,990.62
2017-01-31T06:03:45.303Z,990.66
2017-01-31T06:04:45.330Z,990.66
2017-01-31T06:05:45.356Z,990.64
2017-01-31T06:06:45.397Z,990.67
2017-01-31T06:07:45.411Z,990.65
2017-01-31T06:08:45.438Z,990.67
2017-01-31T06:09:45.463Z,990.71
2017-01-31T06:10:45.491Z,990.73
2017-01-31T06:11:45.513Z,990.7
2017-01-31T06:12:45.545Z,990.73
2017-01-31T06:13:45.572Z,990.71
2017-01-31T06:14:45.598Z,990.69
2017-01-31T06:15:45.627Z,990.68
2017-01-31T06:16:45.904Z,990.65
2017-01-31T06:17:45.677Z,990.65
2017-01-31T06:18:45.701Z,990.65
2017-01-31T06:19:45.734Z,990.68
2017-01-31T06:20:45.759Z,990.64
2017-01-31T06:21:46.036Z,990.64
2017-01-31T06:22:45.812Z,990.64
2017-01-31T06:23:45.839Z,990.62
2017-01-31T06:24:45.866Z,990.68
2017-01-31T06:25:45.894Z,990.65
2017-01-31T06:26:45.920Z,990.7
2017-01-31T06:27:45.948Z,990.67
2017-01-31T06:28:45.973Z,990.63
2017-01-31T06:29:46.001Z,990.68
2017-01-31T06:30:46.025Z,990.65
2017-01-31T06:31:46.051Z,990.67
2017-01-31T06:32:46.079Z,990.64
2017-01-31T06:33:46.104Z,990.65
2017-01-31T06:34:46.137Z,990.62
2017-01-31T06:35:46.163Z,990.56
2017-01-31T06:36:46.191Z,990.55
2017-01-31T06:37:46.215Z,990.58
2017-01-31T06:38:46.245Z,990.59
2017-01-31T06:39:46.269Z,990.61
2017-01-31T06:40:46.298Z,990.64
2017-01-31T06:41:46.327Z,990.6
2017-01-31T06:42:46.350Z,990.6
2017-01-31T06:43:46.380Z,990.65
2017-01-31T06:44:46.404Z,990.65
2017-01-31T06:45:46.434Z,990.65
2017-01-31T06:46:46.459Z,990.64
2017-01-31T06:47:46.487Z,990.66
2017-01-31T06:48:46.517Z,990.67
2017-01-31T06:49:46.540Z,990.7
2017-01-31T06:50:46.570Z,990.72
2017-01-31T06:51:46.597Z,990.7
2017-01-31T06:52:46.618Z,990.73
2017-01-31T06:53:46.647Z,990.75
2017-01-31T06:54:46.678Z,990.8
2017-01-31T06:55:46.705Z,990.8
2017-01-31T06:56:46.730Z,990.82
2017-01-31T06:57:46.758Z,990.81
2017-01-31T06:58:46.780Z,990.85
2017-01-31T06:59:46.816Z,990.84
2017-01-31T07:00:46.832Z,990.84
2017-01-31T07:01:46.865Z,990.93
2017-01-31T07:02:46.897Z,990.91
2017-01-31T07:03:46.915Z,990.92
2017-01-31T07:04:46.949Z,990.95
2017-01-31T07:05:46.974Z,990.95
2017-01-31T07:06:47.002Z,990.98
2017-01-31T07:07:47.030Z,990.99
2017-01-31T07:08:47.055Z,991
2017-01-31T07:09:47.084Z,991.01
2017-01-31T07:10:47.109Z,991.02
2017-01-31T07:11:47.136Z,991.02
2017-01-31T07:12:47.166Z,991.04
2017-01-31T07:13:47.188Z,991.05
2017-01-31T07:14:47.218Z,991.01
2017-01-31T07:15:47.248Z,991
2017-01-31T07:16:47.272Z,991.05
2017-01-31T07:17:47.299Z,991.06
2017-01-31T07:18:47.326Z,991.08
2017-01-31T07:19:47.357Z,991.06
2017-01-31T07:20:47.384Z,991.07
2017-01-31T07:21:47.409Z,991.06
2017-01-31T07:22:47.443Z,991.11
2017-01-31T07:23:47.463Z,991.06
2017-01-31T07:24:47.491Z,991.09
2017-01-31T07:25:47.516Z,991.09
2017-01-31T07:26:47.546Z,991.12
2017-01-31T07:27:47.574Z,991.1
2017-01-31T07:28:47.606Z,991.1
2017-01-31T07:29:47.635Z,991.1
2017-01-31T07:30:47.652Z,991.12
2017-01-31T07:31:47.686Z,991.14
2017-01-31T07:32:47.720Z,991.14
2017-01-31T07:33:47.734Z,991.16
2017-01-31T07:34:47.763Z,991.18
2017-01-31T07:35:47.789Z,991.17
2017-01-31T07:36:47.816Z,991.17
2017-01-31T07:37:47.840Z,991.19
2017-01-31T07:38:47.870Z,991.21
2017-01-31T07:39:47.898Z,991.21
2017-01-31T07:40:47.924Z,991.28
2017-01-31T07:41:47.952Z,991.27
2017-01-31T07:42:47.974Z,991.3
2017-01-31T07:43:48.004Z,991.27
2017-01-31T07:44:48.029Z,991.31
2017-01-31T07:45:48.059Z,991.33
2017-01-31T07:46:48.089Z,991.34
2017-01-31T07:47:48.113Z,991.38
2017-01-31T07:48:48.136Z,991.38
2017-01-31T07:49:48.166Z,991.42
2017-01-31T07:50:48.195Z,991.42
2017-01-31T07:51:48.224Z,991.42
2017-01-31T07:52:48.249Z,991.43
2017-01-31T07:53:48.277Z,991.39
2017-01-31T07:54:48.304Z,991.44
2017-01-31T07:55:48.326Z,991.43
2017-01-31T07:56:48.359Z,991.39
2017-01-31T07:57:48.637Z,991.38
2017-01-31T07:58:48.412Z,991.42
2017-01-31T07:59:48.437Z,991.41
2017-01-31T08:00:48.468Z,991.38
2017-01-31T08:01:48.495Z,991.4
2017-01-31T08:02:48.767Z,991.45
2017-01-31T08:03:48.550Z,991.48
2017-01-31T08:04:48.574Z,991.48
2017-01-31T08:05:48.601Z,991.47
2017-01-31T08:06:48.654Z,991.48
2017-01-31T08:07:48.903Z,991.47
2017-01-31T08:08:48.682Z,991.47
2017-01-31T08:09:48.708Z,991.5
2017-01-31T08:10:48.738Z,991.5
2017-01-31T08:11:48.762Z,991.49
2017-01-31T08:12:49.043Z,991.49
2017-01-31T08:13:48.820Z,991.49
2017-01-31T08:14:48.845Z,991.52
2017-01-31T08:15:48.874Z,991.53
2017-01-31T08:16:48.897Z,991.47
2017-01-31T08:17:49.178Z,991.51
2017-01-31T08:18:48.951Z,991.51
2017-01-31T08:19:48.980Z,991.49
2017-01-31T08:20:49.009Z,991.51
2017-01-31T08:21:49.036Z,991.51
2017-01-31T08:22:49.317Z,991.53
2017-01-31T08:23:49.087Z,991.53
2017-01-31T08:24:49.116Z,991.52
2017-01-31T08:25:49.137Z,991.47
2017-01-31T08:26:49.169Z,991.5
2017-01-31T08:27:49.449Z,991.53
2017-01-31T08:28:49.222Z,991.57
2017-01-31T08:29:49.246Z,991.49
2017-01-31T08:30:49.276Z,991.53
2017-01-31T08:31:49.305Z,991.49
2017-01-31T08:32:49.330Z,991.51
2017-01-31T08:33:49.359Z,991.48
2017-01-31T08:34:49.387Z,991.52
2017-01-31T08:35:49.413Z,991.55
2017-01-31T08:36:49.438Z,991.53
2017-01-31T08:37:49.470Z,991.57
2017-01-31T08:38:49.495Z,991.57
2017-01-31T08:39:49.519Z,991.55
2017-01-31T08:40:49.548Z,991.6
2017-01-31T08:41:49.578Z,991.6
2017-01-31T08:42:49.601Z,991.59
2017-01-31T08:43:49.642Z,991.58
2017-01-31T08:44:49.654Z,991.62
2017-01-31T08:45:49.684Z,991.61
2017-01-31T08:46:49.709Z,991.58
2017-01-31T08:47:49.737Z,991.65
2017-01-31T08:48:49.762Z,991.61
2017-01-31T08:49:49.791Z,991.66
2017-01-31T08:50:49.819Z,991.66
2017-01-31T08:51:49.840Z,991.67
2017-01-31T08:52:49.873Z,991.64
2017-01-31T08:53:49.897Z,991.64
2017-01-31T08:54:49.934Z,991.63
2017-01-31T08:55:50.206Z,991.65
2017-01-31T08:56:49.976Z,991.68
2017-01-31T08:57:50.005Z,991.69
2017-01-31T08:58:50.034Z,991.66
2017-01-31T08:59:50.059Z,991.68
2017-01-31T09:00:50.339Z,991.71
2017-01-31T09:01:50.115Z,991.68
2017-01-31T09:02:50.144Z,991.69
2017-01-31T09:03:50.173Z,991.69
2017-01-31T09:04:50.193Z,991.74
2017-01-31T09:05:50.222Z,991.73
2017-01-31T09:06:50.248Z,991.78
2017-01-31T09:07:50.276Z,991.81
2017-01-31T09:08:50.301Z,991.8
2017-01-31T09:09:50.329Z,991.81
2017-01-31T09:10:50.358Z,991.83
2017-01-31T09:11:50.382Z,991.9
2017-01-31T09:12:50.411Z,991.94
2017-01-31T09:13:50.437Z,991.95
2017-01-31T09:14:50.465Z,991.92
2017-01-31T09:15:50.490Z,991.91
2017-01-31T09:16:50.519Z,991.94
2017-01-31T09:17:50.542Z,991.98
2017-01-31T09:18:50.570Z,991.99
2017-01-31T09:19:50.618Z,992.01
2017-01-31T09:20:50.634Z,991.99
2017-01-31T09:21:50.653Z,991.98
2017-01-31T09:22:50.674Z,991.99
2017-01-31T09:23:50.703Z,991.98
2017-01-31T09:24:50.732Z,991.97
2017-01-31T09:25:50.760Z,992.03
2017-01-31T09:26:50.785Z,991.98
2017-01-31T09:27:50.814Z,991.94
2017-01-31T09:28:50.840Z,991.94
2017-01-31T09:29:50.866Z,992
2017-01-31T09:30:50.892Z,992
2017-01-31T09:31:50.922Z,991.99
2017-01-31T09:32:50.945Z,992.01
2017-01-31T09:33:50.970Z,992.06
2017-01-31T09:34:50.999Z,992.07
2017-01-31T09:35:51.028Z,992.05
2017-01-31T09:36:51.047Z,992.08
2017-01-31T09:37:51.080Z,992.1
2017-01-31T09:38:51.118Z,992.1
2017-01-31T09:39:51.134Z,992.12
2017-01-31T09:40:51.159Z,992.13
2017-01-31T09:41:51.189Z,992.12
2017-01-31T09:42:51.216Z,992.16
2017-01-31T09:43:51.242Z,992.18
2017-01-31T09:44:51.266Z,992.23
2017-01-31T09:45:51.298Z,992.17
2017-01-31T09:46:51.571Z,992.2
2017-01-31T09:47:51.347Z,992.21
2017-01-31T09:48:51.374Z,992.19
2017-01-31T09:49:51.401Z,992.22
2017-01-31T09:50:51.426Z,992.24
2017-01-31T09:51:51.709Z,992.19
2017-01-31T09:52:51.482Z,992.24
2017-01-31T09:53:51.503Z,992.26
2017-01-31T09:54:51.537Z,992.24
2017-01-31T09:55:51.562Z,992.3
2017-01-31T09:56:51.835Z,992.26
2017-01-31T09:57:51.616Z,992.27
2017-01-31T09:58:51.640Z,992.28
2017-01-31T09:59:51.664Z,992.26
2017-01-31T10:00:51.689Z,992.28
2017-01-31T10:01:51.973Z,992.27
2017-01-31T10:02:51.751Z,992.31
2017-01-31T10:03:51.775Z,992.4
2017-01-31T10:04:51.803Z,992.42
2017-01-31T10:05:51.862Z,992.44
2017-01-31T10:06:51.853Z,992.46
2017-01-31T10:07:51.881Z,992.46
2017-01-31T10:08:51.910Z,992.49
2017-01-31T10:09:51.935Z,992.53
2017-01-31T10:10:51.964Z,992.5
2017-01-31T10:11:52.017Z,992.52
2017-01-31T10:12:52.016Z,992.51
2017-01-31T10:13:52.040Z,992.47
2017-01-31T10:14:52.070Z,992.5
2017-01-31T10:15:52.091Z,992.5
2017-01-31T10:16:52.124Z,992.5
2017-01-31T10:17:52.147Z,992.48
2017-01-31T10:18:52.176Z,992.51
2017-01-31T10:19:52.198Z,992.46
2017-01-31T10:20:52.232Z,992.49
2017-01-31T10:21:52.255Z,992.46
2017-01-31T10:22:52.284Z,992.44
2017-01-31T10:23:52.309Z,992.45
2017-01-31T10:24:52.338Z,992.43
2017-01-31T10:25:52.361Z,992.44
2017-01-31T10:26:52.391Z,992.43
2017-01-31T10:27:52.419Z,992.43
2017-01-31T10:28:52.445Z,992.47
2017-01-31T10:29:52.474Z,992.51
2017-01-31T10:30:52.497Z,992.46
2017-01-31T10:31:52.521Z,992.49
2017-01-31T10:32:52.548Z,992.49
2017-01-31T10:33:52.579Z,992.47
2017-01-31T10:34:52.604Z,992.49
2017-01-31T10:35:52.632Z,992.48
2017-01-31T10:36:52.657Z,992.55
2017-01-31T10:37:52.685Z,992.51
2017-01-31T10:38:52.711Z,992.53
2017-01-31T10:39:52.740Z,992.55
2017-01-31T10:40:52.763Z,992.57
2017-01-31T10:41:52.792Z,992.57
2017-01-31T10:42:52.816Z,992.6
2017-01-31T10:43:52.846Z,992.59
2017-01-31T10:44:52.869Z,992.58
2017-01-31T10:45:52.899Z,992.57
2017-01-31T10:46:52.929Z,992.6
2017-01-31T10:47:53.204Z,992.58
2017-01-31T10:48:52.977Z,992.56
2017-01-31T10:49:53.006Z,992.57
2017-01-31T10:50:53.032Z,992.59
2017-01-31T10:51:53.056Z,992.58
2017-01-31T10:52:53.335Z,992.58
2017-01-31T10:53:53.113Z,992.57
2017-01-31T10:54:53.147Z,992.61
2017-01-31T10:55:53.167Z,992.62
2017-01-31T10:56:53.196Z,992.65
2017-01-31T10:57:53.471Z,992.63
2017-01-31T10:58:53.250Z,992.65
2017-01-31T10:59:53.275Z,992.62
2017-01-31T11:00:53.303Z,992.6
2017-01-31T11:01:53.324Z,992.66
2017-01-31T11:02:53.355Z,992.66
2017-01-31T11:03:53.381Z,992.69
2017-01-31T11:04:53.409Z,992.66
2017-01-31T11:05:53.435Z,992.72
2017-01-31T11:06:53.461Z,992.68
2017-01-31T11:07:53.486Z,992.69
2017-01-31T11:08:53.516Z,992.77
2017-01-31T11:09:53.544Z,992.71
2017-01-31T11:10:53.569Z,992.73
2017-01-31T11:11:53.590Z,992.71
2017-01-31T11:12:53.624Z,992.67
2017-01-31T11:13:53.648Z,992.67
2017-01-31T11:14:53.677Z,992.68
2017-01-31T11:15:53.705Z,992.63
2017-01-31T11:16:53.731Z,992.61
2017-01-31T11:17:53.755Z,992.6
2017-01-31T11:18:53.791Z,992.59
2017-01-31T11:19:53.808Z,992.62
2017-01-31T11:20:53.837Z,992.58
2017-01-31T11:21:53.861Z,992.64
2017-01-31T11:22:53.890Z,992.62
2017-01-31T11:23:53.919Z,992.59
2017-01-31T11:24:53.943Z,992.62
2017-01-31T11:25:53.971Z,992.63
2017-01-31T11:26:53.997Z,992.61
2017-01-31T11:27:54.024Z,992.61
2017-01-31T11:28:54.050Z,992.63
2017-01-31T11:29:54.078Z,992.64
2017-01-31T11:30:54.103Z,992.58
2017-01-31T11:31:54.133Z,992.59
2017-01-31T11:32:54.164Z,992.56
2017-01-31T11:33:54.186Z,992.62
2017-01-31T11:34:54.211Z,992.61
2017-01-31T11:35:54.238Z,992.65
2017-01-31T11:36:54.264Z,992.6
2017-01-31T11:37:54.289Z,992.59
2017-01-31T11:38:54.316Z,992.61
2017-01-31T11:39:54.346Z,992.57
2017-01-31T11:40:54.371Z,992.62
2017-01-31T11:41:54.400Z,992.58
2017-01-31T11:42:54.423Z,992.55
2017-01-31T11:43:54.453Z,992.57
2017-01-31T11:44:54.482Z,992.63
2017-01-31T11:45:54.506Z,992.64
2017-01-31T11:46:54.531Z,992.6
2017-01-31T11:47:54.559Z,992.57
2017-01-31T11:48:54.587Z,992.57
2017-01-31T11:49:54.615Z,992.58
2017-01-31T11:50:54.643Z,992.6
2017-01-31T11:51:54.668Z,992.64
2017-01-31T11:52:54.691Z,992.64
2017-01-31T11:53:54.971Z,992.63
2017-01-31T11:54:54.760Z,992.66
2017-01-31T11:55:54.773Z,992.65
2017-01-31T11:56:54.796Z,992.55
2017-01-31T11:57:54.827Z,992.52
2017-01-31T11:58:55.107Z,992.55
2017-01-31T11:59:54.881Z,992.49
2017-01-31T12:00:54.910Z,992.49
2017-01-31T12:01:54.937Z,992.54
2017-01-31T12:02:54.962Z,992.52
2017-01-31T12:03:55.238Z,992.56
2017-01-31T12:04:55.015Z,992.54
2017-01-31T12:05:55.041Z,992.58
2017-01-31T12:06:55.069Z,992.57
2017-01-31T12:07:55.094Z,992.63
2017-01-31T12:08:55.374Z,992.56
2017-01-31T12:09:55.152Z,992.61
2017-01-31T12:10:55.176Z,992.64
2017-01-31T12:11:55.200Z,992.59
2017-01-31T12:12:55.229Z,992.62
2017-01-31T12:13:55.253Z,992.65
2017-01-31T12:14:55.282Z,992.57
2017-01-31T12:15:55.309Z,992.63
2017-01-31T12:16:55.336Z,992.58
2017-01-31T12:17:55.365Z,992.61
2017-01-31T12:18:55.390Z,992.57
2017-01-31T12:19:55.411Z,992.55
2017-01-31T12:20:55.443Z,992.54
2017-01-31T12:21:55.472Z,992.53
2017-01-31T12:22:55.496Z,992.56
2017-01-31T12:23:55.525Z,992.52
2017-01-31T12:24:55.546Z,992.54
2017-01-31T12:25:55.576Z,992.54
2017-01-31T12:26:55.599Z,992.58
2017-01-31T12:27:55.634Z,992.57
2017-01-31T12:28:55.658Z,992.58
2017-01-31T12:29:55.682Z,992.6
2017-01-31T12:30:55.707Z,992.6
2017-01-31T12:31:55.739Z,992.63
2017-01-31T12:32:55.764Z,992.66